Agoura Hills, California
Current Conditions -  °F | °C
As of 8:51 PM on Thursday 30 Oct 2014 (Local Time) from KVNY Reporting Station
Clear Clear  
Wind Chill: 67°   Ceiling: Unl
Heat Index: 67°   Visibility: 10mi
Dew Point: 53°   Wind: 0mph
Humidity: 61%   Direction: NA
Pressure: 29.95"   Gusts: NA
Location:  34.15°N, 118.77°W
Report Text: KVNY 310351Z 00000KT 10SM CLR 19/12 A2995 RMK AO2 SLP137 T01940117
Loading
Personal Weather Stations






























Interactive Weather Map New forecast layout! Learn more

10-Day Weather Forecast

Advertisements
Track Severe Weather on mobile